createdAt,value
2022-08-30T00:00:00.691Z,16.10
2022-08-30T00:02:29.209Z,16.10
2022-08-30T00:05:01.383Z,16.10
2022-08-30T00:07:29.925Z,16.20
2022-08-30T00:09:59.858Z,16.20
2022-08-30T00:12:29.079Z,16.20
2022-08-30T00:14:57.357Z,16.30
2022-08-30T00:17:26.553Z,16.20
2022-08-30T00:19:56.059Z,16.20
2022-08-30T00:22:24.318Z,16.20
2022-08-30T00:24:52.642Z,16.10
2022-08-30T00:27:22.265Z,16.10
2022-08-30T00:29:50.491Z,16.10
2022-08-30T00:32:21.300Z,16.00
2022-08-30T00:34:49.650Z,16.00
2022-08-30T00:37:18.863Z,15.90
2022-08-30T00:39:48.083Z,16.00
2022-08-30T00:42:18.646Z,16.00
2022-08-30T00:44:50.161Z,15.90
2022-08-30T00:47:18.950Z,15.90
2022-08-30T00:49:52.948Z,15.90
2022-08-30T00:52:23.691Z,15.90
2022-08-30T00:54:54.097Z,15.90
2022-08-30T00:57:22.482Z,15.90
2022-08-30T00:59:52.310Z,15.90
2022-08-30T01:02:24.624Z,16.00
2022-08-30T01:04:54.400Z,16.00
2022-08-30T01:07:22.674Z,16.00
2022-08-30T01:09:51.212Z,16.00
2022-08-30T01:12:19.627Z,16.00
2022-08-30T01:14:48.359Z,16.10
2022-08-30T01:17:19.119Z,16.00
2022-08-30T01:19:56.537Z,16.10
2022-08-30T01:22:34.469Z,16.10
2022-08-30T01:25:08.241Z,16.10
2022-08-30T01:27:42.619Z,16.10
2022-08-30T01:30:13.169Z,16.20
2022-08-30T01:32:46.128Z,16.20
2022-08-30T01:35:18.457Z,16.20
2022-08-30T01:37:48.381Z,16.20
2022-08-30T01:40:19.686Z,16.20
2022-08-30T01:42:48.956Z,16.20
2022-08-30T01:45:17.489Z,16.20
2022-08-30T01:47:45.918Z,16.20
2022-08-30T01:50:14.687Z,16.30
2022-08-30T01:52:43.017Z,16.30
2022-08-30T01:55:12.139Z,16.20
2022-08-30T01:57:41.838Z,16.20
2022-08-30T02:00:12.251Z,16.20
2022-08-30T02:02:40.708Z,16.20
2022-08-30T02:05:09.985Z,16.20
2022-08-30T02:07:38.237Z,16.30
2022-08-30T02:10:07.776Z,16.30
2022-08-30T02:12:36.126Z,16.30
2022-08-30T02:15:07.073Z,16.30
2022-08-30T02:17:35.355Z,16.30
2022-08-30T02:20:04.297Z,16.30
2022-08-30T02:22:32.642Z,16.30
2022-08-30T02:25:01.200Z,16.30
2022-08-30T02:27:29.472Z,16.20
2022-08-30T02:29:57.805Z,16.20
2022-08-30T02:32:27.405Z,16.20
2022-08-30T02:34:55.768Z,16.10
2022-08-30T02:37:24.045Z,16.10
2022-08-30T02:39:52.238Z,16.10
2022-08-30T02:42:20.506Z,16.10
2022-08-30T02:44:48.803Z,16.10
2022-08-30T02:47:16.975Z,16.10
2022-08-30T02:49:46.494Z,16.10
2022-08-30T02:52:14.770Z,16.20
2022-08-30T02:54:43.106Z,16.10
2022-08-30T02:57:20.001Z,16.10
2022-08-30T02:59:48.769Z,16.10
2022-08-30T03:02:17.434Z,16.00
2022-08-30T03:04:47.090Z,16.00
2022-08-30T03:07:16.207Z,16.00
2022-08-30T03:09:45.075Z,16.00
2022-08-30T03:12:13.709Z,16.00
2022-08-30T03:14:41.982Z,16.00
2022-08-30T03:17:12.834Z,16.00
2022-08-30T03:19:46.393Z,16.00
2022-08-30T03:22:14.891Z,16.00
2022-08-30T03:24:43.089Z,16.00
2022-08-30T03:27:11.299Z,15.90
2022-08-30T03:29:40.142Z,15.90
2022-08-30T03:32:08.489Z,15.90
2022-08-30T03:34:36.971Z,15.90
2022-08-30T03:37:06.683Z,15.90
2022-08-30T03:39:35.130Z,15.90
2022-08-30T03:42:03.409Z,15.80
2022-08-30T03:44:31.998Z,15.90
2022-08-30T03:47:00.655Z,15.90
2022-08-30T03:49:28.959Z,15.90
2022-08-30T03:51:57.141Z,15.90
2022-08-30T03:54:26.738Z,16.00
2022-08-30T03:56:56.096Z,16.00
2022-08-30T03:59:24.994Z,16.00
2022-08-30T04:01:53.257Z,16.10
2022-08-30T04:04:21.707Z,16.00
2022-08-30T04:06:50.903Z,15.90
2022-08-30T04:09:20.433Z,15.80
2022-08-30T04:11:50.102Z,15.80
2022-08-30T04:14:19.100Z,15.80
2022-08-30T04:16:47.438Z,15.70
2022-08-30T04:19:15.813Z,15.60
2022-08-30T04:21:44.774Z,15.60
2022-08-30T04:24:13.333Z,15.60
2022-08-30T04:26:41.601Z,15.50
2022-08-30T04:29:16.230Z,15.50
2022-08-30T04:31:45.648Z,15.50
2022-08-30T04:34:14.635Z,15.50
2022-08-30T04:36:42.805Z,15.50
2022-08-30T04:39:16.703Z,15.60
2022-08-30T04:41:44.944Z,15.60
2022-08-30T04:44:19.288Z,15.60
2022-08-30T04:46:48.053Z,15.70
2022-08-30T04:49:16.253Z,15.70
2022-08-30T04:51:44.494Z,15.60
2022-08-30T04:54:13.005Z,15.70
2022-08-30T04:56:41.446Z,15.60
2022-08-30T04:59:09.630Z,15.70
2022-08-30T05:01:45.660Z,15.70
2022-08-30T05:04:14.849Z,15.70
2022-08-30T05:06:43.813Z,15.80
2022-08-30T05:09:12.533Z,15.90
2022-08-30T05:11:43.134Z,15.90
2022-08-30T05:14:12.056Z,16.00
2022-08-30T05:16:42.493Z,16.10
2022-08-30T05:19:11.259Z,16.10
2022-08-30T05:21:41.529Z,16.10
2022-08-30T05:24:10.160Z,16.10
2022-08-30T05:26:40.305Z,16.10
2022-08-30T05:29:08.770Z,16.10
2022-08-30T05:31:37.927Z,16.10
2022-08-30T05:34:07.584Z,16.10
2022-08-30T05:36:38.238Z,16.20
2022-08-30T05:39:07.879Z,16.20
2022-08-30T05:41:38.963Z,16.30
2022-08-30T05:44:10.086Z,16.30
2022-08-30T05:46:39.625Z,16.30
2022-08-30T05:49:10.646Z,16.30
2022-08-30T05:51:43.342Z,16.30
2022-08-30T05:54:13.478Z,16.30
2022-08-30T05:56:44.341Z,16.20
2022-08-30T05:59:14.602Z,16.20
2022-08-30T06:01:46.940Z,16.30
2022-08-30T06:04:17.612Z,16.30
2022-08-30T06:06:46.114Z,16.30
2022-08-30T06:09:16.088Z,16.30
2022-08-30T06:11:46.034Z,16.30
2022-08-30T06:14:15.897Z,16.40
2022-08-30T06:16:45.798Z,16.40
2022-08-30T06:19:17.111Z,16.50
2022-08-30T06:21:49.794Z,16.60
2022-08-30T06:24:18.539Z,16.70
2022-08-30T06:26:48.436Z,16.70
2022-08-30T06:29:19.703Z,16.80
2022-08-30T06:31:48.366Z,16.90
2022-08-30T06:34:18.330Z,16.90
2022-08-30T06:36:46.887Z,17.00
2022-08-30T06:39:16.633Z,17.20
2022-08-30T06:41:45.495Z,17.20
2022-08-30T06:44:28.432Z,17.20
2022-08-30T06:46:58.919Z,17.20
2022-08-30T06:49:28.478Z,17.20
2022-08-30T06:51:56.673Z,17.20
2022-08-30T06:54:25.219Z,17.20
2022-08-30T06:56:58.438Z,17.30
2022-08-30T06:59:28.069Z,17.30
2022-08-30T07:01:57.311Z,17.40
2022-08-30T07:04:27.847Z,17.50
2022-08-30T07:06:56.319Z,17.50
2022-08-30T07:09:24.820Z,17.50
2022-08-30T07:11:54.482Z,17.60
2022-08-30T07:14:25.093Z,17.70
2022-08-30T07:16:53.289Z,17.80
2022-08-30T07:19:22.198Z,17.80
2022-08-30T07:21:52.201Z,17.90
2022-08-30T07:24:21.453Z,18.00
2022-08-30T07:26:51.934Z,18.00
2022-08-30T07:29:21.723Z,18.00
2022-08-30T07:31:50.550Z,17.90
2022-08-30T07:34:20.486Z,18.00
2022-08-30T07:36:52.035Z,18.00
2022-08-30T07:39:20.876Z,18.10
2022-08-30T07:41:50.735Z,18.10
2022-08-30T07:44:22.791Z,18.20
2022-08-30T07:46:53.454Z,18.20
2022-08-30T07:49:21.791Z,18.20
2022-08-30T07:51:51.926Z,18.30
2022-08-30T07:54:20.185Z,18.30
2022-08-30T07:56:48.583Z,18.30
2022-08-30T07:59:17.141Z,18.40
2022-08-30T08:01:45.449Z,18.50
2022-08-30T08:04:13.833Z,18.60
2022-08-30T08:06:42.824Z,18.60
2022-08-30T08:09:12.688Z,18.50
2022-08-30T08:11:41.737Z,18.60
2022-08-30T08:14:10.836Z,18.60
2022-08-30T08:16:39.954Z,18.60
2022-08-30T08:19:09.192Z,18.70
2022-08-30T08:21:38.538Z,18.80
2022-08-30T08:24:07.631Z,18.80
2022-08-30T08:26:41.122Z,18.80
2022-08-30T08:29:13.753Z,18.90
2022-08-30T08:31:42.614Z,19.00
2022-08-30T08:34:11.667Z,19.00
2022-08-30T08:36:40.577Z,19.00
2022-08-30T08:39:10.589Z,19.10
2022-08-30T08:41:54.978Z,19.30
2022-08-30T08:44:44.438Z,19.30
2022-08-30T08:47:18.615Z,19.20
2022-08-30T08:49:52.222Z,19.30
2022-08-30T08:52:46.293Z,19.30
2022-08-30T08:55:19.996Z,19.40
2022-08-30T08:57:49.911Z,19.50
2022-08-30T09:00:18.352Z,19.60
2022-08-30T09:02:55.795Z,19.50
2022-08-30T09:05:28.716Z,19.60
2022-08-30T09:08:07.647Z,19.80
2022-08-30T09:10:50.392Z,19.70
2022-08-30T09:13:22.903Z,19.60
2022-08-30T09:15:54.894Z,19.50
2022-08-30T09:18:51.290Z,19.50
2022-08-30T09:21:27.513Z,19.50
2022-08-30T09:24:03.461Z,19.60
2022-08-30T09:26:37.011Z,19.60
2022-08-30T09:29:18.143Z,19.60
2022-08-30T09:31:52.922Z,19.70
2022-08-30T09:34:34.515Z,19.70
2022-08-30T09:37:02.760Z,19.70
2022-08-30T09:39:39.331Z,19.80
2022-08-30T09:42:19.618Z,19.90
2022-08-30T09:44:49.455Z,20.00
2022-08-30T09:47:28.569Z,20.00
2022-08-30T09:50:08.436Z,20.10
2022-08-30T09:52:55.385Z,20.10
2022-08-30T09:55:59.752Z,20.20
2022-08-30T09:58:46.490Z,20.20
2022-08-30T10:01:23.036Z,20.20
2022-08-30T10:04:00.924Z,20.30
2022-08-30T10:06:37.673Z,20.40
2022-08-30T10:09:24.237Z,20.50
2022-08-30T10:12:04.773Z,20.30
2022-08-30T10:15:03.636Z,20.20
2022-08-30T10:17:49.135Z,20.30
2022-08-30T10:20:27.017Z,20.40
2022-08-30T10:23:07.002Z,20.30
2022-08-30T10:25:41.037Z,20.40
2022-08-30T10:28:17.812Z,20.30
2022-08-30T10:30:57.338Z,20.40
2022-08-30T10:33:36.719Z,20.40
2022-08-30T10:36:12.421Z,20.60
2022-08-30T10:38:45.616Z,20.70
2022-08-30T10:41:29.269Z,20.60
2022-08-30T10:44:06.478Z,20.70
2022-08-30T10:46:44.407Z,20.70
2022-08-30T10:49:20.599Z,20.50
2022-08-30T10:51:56.356Z,20.50
2022-08-30T10:55:02.771Z,20.70
2022-08-30T10:57:31.302Z,21.00
2022-08-30T11:00:07.081Z,21.00
2022-08-30T11:03:31.720Z,21.10
2022-08-30T11:06:22.627Z,21.20
2022-08-30T11:09:21.389Z,21.10
2022-08-30T11:12:17.797Z,20.70
2022-08-30T11:14:48.032Z,20.50
2022-08-30T11:17:31.983Z,20.30
2022-08-30T11:20:03.319Z,20.40
2022-08-30T11:22:38.989Z,20.20
2022-08-30T11:25:15.604Z,20.20
2022-08-30T11:27:51.534Z,20.20
2022-08-30T11:30:52.616Z,20.30
2022-08-30T11:33:49.007Z,20.40
2022-08-30T11:37:10.111Z,20.40
2022-08-30T11:40:04.156Z,20.40
2022-08-30T11:42:44.674Z,20.30
2022-08-30T11:45:47.820Z,20.20
2022-08-30T11:48:53.900Z,20.20
2022-08-30T11:52:27.376Z,20.10
2022-08-30T11:55:29.435Z,20.00
2022-08-30T11:58:11.889Z,20.00
2022-08-30T12:00:50.307Z,20.10
2022-08-30T12:03:35.060Z,20.30
2022-08-30T12:06:06.312Z,20.50
2022-08-30T12:08:58.042Z,20.70
2022-08-30T12:12:00.723Z,21.10
2022-08-30T12:14:51.905Z,21.50
2022-08-30T12:17:44.819Z,21.80
2022-08-30T12:20:23.229Z,21.80
2022-08-30T12:22:53.329Z,22.10
2022-08-30T12:25:30.648Z,21.90
2022-08-30T12:28:21.406Z,21.40
2022-08-30T12:30:51.760Z,21.20
2022-08-30T12:33:39.555Z,21.10
2022-08-30T12:36:16.197Z,21.00
2022-08-30T12:38:44.995Z,21.10
2022-08-30T12:41:22.552Z,21.00
2022-08-30T12:43:53.234Z,20.90
2022-08-30T12:46:23.433Z,21.00
2022-08-30T12:48:52.487Z,21.10
2022-08-30T12:51:39.404Z,21.30
2022-08-30T12:54:20.736Z,21.30
2022-08-30T13:00:01.648Z,21.50
2022-08-30T13:02:47.645Z,21.60
2022-08-30T13:05:34.252Z,21.70
2022-08-30T13:08:21.365Z,21.80
2022-08-30T13:10:55.728Z,22.10
2022-08-30T13:13:41.252Z,22.30
2022-08-30T13:16:29.539Z,22.40
2022-08-30T13:19:32.444Z,22.70
2022-08-30T13:22:01.893Z,22.60
2022-08-30T13:24:30.634Z,22.40
2022-08-30T13:27:06.493Z,22.30
2022-08-30T13:29:37.053Z,22.00
2022-08-30T13:32:06.945Z,21.60
2022-08-30T13:34:36.223Z,21.40
2022-08-30T13:37:05.126Z,21.20
2022-08-30T13:39:34.169Z,21.10
2022-08-30T13:44:53.962Z,21.40
2022-08-30T13:47:39.204Z,21.60
2022-08-30T13:50:09.779Z,21.80
2022-08-30T13:52:38.076Z,21.90
2022-08-30T13:55:08.322Z,21.90
2022-08-30T14:00:25.956Z,21.60
2022-08-30T14:02:57.594Z,21.30
2022-08-30T14:11:16.085Z,21.70
2022-08-30T14:16:39.156Z,21.90
2022-08-30T14:19:09.463Z,21.90
2022-08-30T14:21:37.695Z,21.80
2022-08-30T14:24:07.012Z,21.50
2022-08-30T14:26:38.687Z,21.50
2022-08-30T14:29:10.749Z,21.60
2022-08-30T14:31:39.658Z,21.70
2022-08-30T14:34:11.691Z,21.50
2022-08-30T14:36:43.807Z,21.40
2022-08-30T14:39:15.132Z,21.40
2022-08-30T14:41:47.075Z,21.40
2022-08-30T14:44:17.897Z,21.50
2022-08-30T14:46:46.734Z,21.50
2022-08-30T14:49:17.758Z,21.50
2022-08-30T14:51:48.359Z,21.70
2022-08-30T14:54:18.265Z,21.70
2022-08-30T14:56:46.701Z,21.80
2022-08-30T14:59:15.954Z,21.90
2022-08-30T15:01:45.600Z,21.80
2022-08-30T15:04:16.960Z,21.70
2022-08-30T15:06:48.966Z,21.60
2022-08-30T15:09:23.554Z,21.40
2022-08-30T15:11:53.480Z,21.10
2022-08-30T15:14:24.441Z,21.00
2022-08-30T15:16:56.063Z,21.10
2022-08-30T15:19:26.497Z,21.20
2022-08-30T15:21:55.006Z,21.30
2022-08-30T15:24:29.702Z,21.20
2022-08-30T15:26:59.877Z,21.30
2022-08-30T15:29:30.645Z,21.30
2022-08-30T15:32:01.389Z,21.40
2022-08-30T15:34:32.256Z,21.40
2022-08-30T15:37:01.875Z,21.50
2022-08-30T15:39:31.725Z,21.60
2022-08-30T15:42:01.432Z,21.60
2022-08-30T15:44:31.042Z,21.70
2022-08-30T15:46:59.962Z,21.80
2022-08-30T15:49:28.353Z,21.90
2022-08-30T15:52:02.753Z,21.90
2022-08-30T15:54:31.434Z,21.80
2022-08-30T15:57:00.054Z,21.90
2022-08-30T15:59:29.256Z,22.00
2022-08-30T16:01:57.742Z,21.90
2022-08-30T16:04:26.474Z,21.80
2022-08-30T16:06:54.810Z,21.70
2022-08-30T16:09:30.078Z,21.70
2022-08-30T16:12:01.898Z,21.70
2022-08-30T16:14:30.379Z,21.70
2022-08-30T16:16:59.652Z,21.70
2022-08-30T16:19:28.961Z,21.50
2022-08-30T16:21:57.404Z,21.40
2022-08-30T16:24:27.292Z,21.40
2022-08-30T16:26:55.882Z,21.30
2022-08-30T16:29:24.248Z,21.30
2022-08-30T16:31:52.603Z,21.20
2022-08-30T16:34:21.613Z,21.10
2022-08-30T16:36:50.071Z,20.90
2022-08-30T16:39:18.558Z,20.70
2022-08-30T16:41:48.368Z,20.70
2022-08-30T16:44:17.939Z,20.50
2022-08-30T16:46:52.828Z,20.30
2022-08-30T16:49:23.143Z,20.20
2022-08-30T16:51:53.494Z,20.20
2022-08-30T16:54:22.195Z,20.10
2022-08-30T16:56:52.232Z,20.00
2022-08-30T16:59:20.579Z,20.00
2022-08-30T17:01:49.318Z,19.90
2022-08-30T17:04:19.774Z,19.90
2022-08-30T17:06:49.683Z,19.80
2022-08-30T17:09:21.385Z,19.80
2022-08-30T17:11:52.784Z,19.70
2022-08-30T17:14:27.949Z,19.80
2022-08-30T17:17:00.535Z,19.70
2022-08-30T17:19:29.923Z,19.60
2022-08-30T17:21:58.995Z,19.60
2022-08-30T17:24:27.811Z,19.60
2022-08-30T17:26:58.284Z,19.50
2022-08-30T17:29:26.792Z,19.50
2022-08-30T17:31:55.389Z,19.40
2022-08-30T17:34:26.485Z,19.40
2022-08-30T17:36:57.086Z,19.30
2022-08-30T17:39:26.450Z,19.20
2022-08-30T17:41:55.574Z,19.00
2022-08-30T17:44:28.914Z,19.10
2022-08-30T17:46:59.653Z,19.00
2022-08-30T17:49:29.312Z,18.90
2022-08-30T17:51:58.867Z,18.90
2022-08-30T17:54:28.744Z,18.80
2022-08-30T17:56:58.835Z,18.80
2022-08-30T17:59:31.511Z,18.60
2022-08-30T18:02:02.280Z,18.70
2022-08-30T18:04:31.307Z,18.60
2022-08-30T18:06:59.922Z,18.50
2022-08-30T18:12:17.479Z,18.50
2022-08-30T18:14:52.978Z,18.50
2022-08-30T18:17:22.606Z,18.40
2022-08-30T18:19:50.834Z,18.40
2022-08-30T18:22:19.566Z,18.40
2022-08-30T18:24:47.845Z,18.30
2022-08-30T18:27:16.452Z,18.20
2022-08-30T18:29:44.724Z,18.10
2022-08-30T18:32:14.333Z,18.00
2022-08-30T18:34:43.695Z,18.00
2022-08-30T18:37:13.027Z,18.00
2022-08-30T18:39:43.508Z,17.90
2022-08-30T18:42:11.695Z,17.90
2022-08-30T18:44:40.367Z,17.90
2022-08-30T18:47:13.725Z,17.90
2022-08-30T18:49:43.256Z,17.80
2022-08-30T18:52:12.500Z,17.90
2022-08-30T18:57:34.144Z,17.80
2022-08-30T19:00:05.866Z,17.70
2022-08-30T19:02:35.409Z,17.60
2022-08-30T19:05:03.744Z,17.60
2022-08-30T19:07:34.435Z,17.50
2022-08-30T19:10:07.028Z,17.40
2022-08-30T19:12:35.314Z,17.40
2022-08-30T19:15:11.012Z,17.30
2022-08-30T19:17:44.298Z,17.30
2022-08-30T19:20:16.095Z,17.30
2022-08-30T19:23:08.507Z,17.20
2022-08-30T19:25:33.409Z,17.10
2022-08-30T19:28:01.622Z,17.10
2022-08-30T19:30:30.273Z,17.10
2022-08-30T19:33:00.183Z,17.20
2022-08-30T19:35:30.169Z,17.20
2022-08-30T19:37:59.393Z,17.20
2022-08-30T19:40:27.793Z,17.10
2022-08-30T19:42:56.662Z,17.10
2022-08-30T19:45:25.806Z,17.00
2022-08-30T19:47:54.225Z,17.00
2022-08-30T19:50:24.310Z,16.90
2022-08-30T19:52:55.100Z,16.80
2022-08-30T19:58:13.378Z,16.70
2022-08-30T20:00:51.868Z,16.60
2022-08-30T20:03:29.083Z,16.60
2022-08-30T20:05:59.078Z,16.50
2022-08-30T20:08:27.490Z,16.50
2022-08-30T20:10:55.829Z,16.40
2022-08-30T20:13:24.309Z,16.40
2022-08-30T20:15:58.116Z,16.30
2022-08-30T20:18:28.791Z,16.30
2022-08-30T20:20:58.614Z,16.20
2022-08-30T20:24:17.212Z,16.10
2022-08-30T20:24:26.632Z,18.50
2022-08-30T20:24:29.769Z,17.90
2022-08-30T20:26:45.494Z,16.10
2022-08-30T20:29:13.718Z,16.00
2022-08-30T20:31:41.965Z,16.00
2022-08-30T20:34:10.208Z,15.90
2022-08-30T20:36:40.478Z,15.90
2022-08-30T20:39:10.061Z,15.80
2022-08-30T20:41:38.849Z,15.80
2022-08-30T20:44:11.815Z,15.80
2022-08-30T20:46:44.918Z,15.70
2022-08-30T20:49:14.179Z,15.70
2022-08-30T20:51:44.204Z,15.60
2022-08-30T20:54:13.640Z,15.70
2022-08-30T20:56:41.911Z,15.50
2022-08-30T20:59:11.232Z,15.50
2022-08-30T21:01:39.649Z,15.50
2022-08-30T21:04:10.318Z,15.50
2022-08-30T21:06:38.698Z,15.40
2022-08-30T21:09:09.753Z,15.40
2022-08-30T21:11:38.905Z,15.30
2022-08-30T21:14:13.437Z,15.30
2022-08-30T21:16:42.327Z,15.30
2022-08-30T21:19:10.703Z,15.20
2022-08-30T21:21:38.915Z,15.00
2022-08-30T21:24:10.102Z,15.00
2022-08-30T21:26:39.697Z,15.00
2022-08-30T21:29:09.151Z,15.00
2022-08-30T21:31:38.982Z,15.00
2022-08-30T21:34:08.435Z,15.00
2022-08-30T21:36:47.518Z,15.00
2022-08-30T21:39:21.870Z,14.90
2022-08-30T21:41:54.412Z,14.90
2022-08-30T21:44:27.433Z,14.80
2022-08-30T21:46:55.981Z,14.80
2022-08-30T21:49:25.303Z,14.80
2022-08-30T21:51:55.281Z,14.80
2022-08-30T21:54:31.269Z,14.70
2022-08-30T21:57:02.293Z,14.70
2022-08-30T21:59:30.574Z,14.70
2022-08-30T22:01:59.642Z,14.60
2022-08-30T22:04:30.902Z,14.60
2022-08-30T22:07:00.160Z,14.60
2022-08-30T22:09:29.855Z,14.50
2022-08-30T22:11:58.038Z,14.50
2022-08-30T22:14:27.133Z,14.50
2022-08-30T22:16:55.662Z,14.40
2022-08-30T22:19:24.259Z,14.40
2022-08-30T22:22:00.724Z,14.40
2022-08-30T22:24:32.453Z,14.40
2022-08-30T22:27:02.925Z,14.30
2022-08-30T22:29:31.465Z,14.30
2022-08-30T22:32:00.586Z,14.30
2022-08-30T22:34:29.382Z,14.20
2022-08-30T22:36:57.653Z,14.20
2022-08-30T22:39:26.515Z,14.20
2022-08-30T22:41:56.132Z,14.10
2022-08-30T22:44:24.471Z,14.10
2022-08-30T22:46:53.119Z,14.00
2022-08-30T22:49:21.807Z,14.00
2022-08-30T22:51:50.083Z,14.00
2022-08-30T22:54:18.494Z,13.90
2022-08-30T22:56:46.841Z,13.90
2022-08-30T22:59:16.682Z,13.90
2022-08-30T23:01:47.007Z,13.80
2022-08-30T23:04:15.588Z,13.80
2022-08-30T23:06:49.932Z,13.80
2022-08-30T23:09:19.625Z,13.80
2022-08-30T23:11:48.067Z,13.70
2022-08-30T23:14:17.846Z,13.60
2022-08-30T23:16:46.918Z,13.60
2022-08-30T23:19:16.321Z,13.60
2022-08-30T23:21:45.008Z,13.50
2022-08-30T23:24:30.795Z,13.50
2022-08-30T23:27:16.714Z,13.50
2022-08-30T23:30:03.879Z,13.50
2022-08-30T23:32:49.879Z,13.40
2022-08-30T23:35:36.108Z,13.40
2022-08-30T23:38:24.633Z,13.30
2022-08-30T23:41:16.728Z,13.30
2022-08-30T23:44:02.724Z,13.30
2022-08-30T23:46:49.954Z,13.20
2022-08-30T23:49:35.998Z,13.20
2022-08-30T23:52:22.454Z,13.20
2022-08-30T23:55:08.408Z,13.10
2022-08-30T23:57:54.346Z,13.20
